Time;durP1;ratioP1;P1;durP2;ratioP2;P2;SDS_P1;SDS_P2;PMS_P1;PMS_P2;Temp;Humidity;BMP_temperature;BMP_pressure;BME280_temperature;BME280_humidity;BME280_pressure;Samples;Min_cycle;Max_cycle;Signal;HPM_P1;HPM_P2
2023/03/29 00:01:24;;;;;;;5.43;1.70;;;;;;;;;;4932545;28;20055;-58
2023/03/29 00:03:52;;;;;;;3.58;1.92;;;;;;;;;;4930013;28;20491;-59
2023/03/29 00:06:21;;;;;;;2.88;1.95;;;;;;;;;;4927209;28;20138;-59
2023/03/29 00:08:53;;;;;;;3.15;2.15;;;;;;;;;;4926868;28;20035;-58
2023/03/29 00:11:21;;;;;;;20.67;3.03;;;;;;;;;;4925758;28;20032;-59
2023/03/29 00:13:48;;;;;;;7.03;2.15;;;;;;;;;;4927772;28;20030;-58
2023/03/29 00:16:16;;;;;;;2.88;1.80;;;;;;;;;;4932140;29;20020;-59
2023/03/29 00:18:43;;;;;;;4.47;2.08;;;;;;;;;;4932891;28;20028;-59
2023/03/29 00:21:10;;;;;;;6.80;2.03;;;;;;;;;;4931220;28;20042;-58
2023/03/29 00:23:36;;;;;;;1.95;1.60;;;;;;;;;;4931714;28;20089;-59
2023/03/29 00:26:03;;;;;;;3.42;1.67;;;;;;;;;;4930216;28;20019;-59
2023/03/29 00:28:30;;;;;;;2.40;1.75;;;;;;;;;;4927075;28;20063;-59
2023/03/29 00:31:05;;;;;;;4.18;1.85;;;;;;;;;;4926906;28;20028;-62
2023/03/29 00:33:31;;;;;;;;;;;;;;;;;;4926164;28;20474;-59
2023/03/29 00:35:58;;;;;;;3.85;2.05;;;;;;;;;;4928709;28;19957;-59
2023/03/29 00:38:25;;;;;;;2.17;1.83;;;;;;;;;;4935107;28;20077;-58
2023/03/29 00:40:51;;;;;;;3.72;2.25;;;;;;;;;;4935048;28;20024;-58
2023/03/29 00:43:18;;;;;;;3.92;2.22;;;;;;;;;;4935330;28;20055;-58
2023/03/29 00:45:45;;;;;;;4.20;2.03;;;;;;;;;;4935221;28;20087;-58
2023/03/29 00:48:16;;;;;;;2.47;1.83;;;;;;;;;;4934195;28;20305;-59
2023/03/29 00:50:46;;;;;;;1.88;1.58;;;;;;;;;;4929823;28;20035;-59
2023/03/29 00:53:20;;;;;;;4.45;2.60;;;;;;;;;;4928821;28;20066;-59
2023/03/29 00:55:51;;;;;;;3.42;2.35;;;;;;;;;;4930356;28;20426;-59
2023/03/29 00:58:20;;;;;;;4.47;2.67;;;;;;;;;;4913832;28;20035;-58
2023/03/29 01:00:51;;;;;;;4.20;2.50;;;;;;;;;;4935270;28;20050;-58
2023/03/29 01:03:23;;;;;;;2.87;2.27;;;;;;;;;;4933930;28;20044;-58
2023/03/29 01:05:53;;;;;;;2.17;1.97;;;;;;;;;;4935212;28;20027;-58
2023/03/29 01:08:24;;;;;;;4.43;2.63;;;;;;;;;;4933465;28;20082;-58
2023/03/29 01:10:51;;;;;;;3.03;2.37;;;;;;;;;;4932971;28;20471;-58
2023/03/29 01:13:20;;;;;;;5.13;2.20;;;;;;;;;;4929746;28;20027;-58
2023/03/29 01:15:47;;;;;;;2.80;2.13;;;;;;;;;;4929897;28;20151;-58
2023/03/29 01:18:14;;;;;;;5.97;2.67;;;;;;;;;;4929745;28;20062;-58
2023/03/29 01:21:07;;;;;;;3.77;2.63;;;;;;;;;;4930572;28;20093;-58
2023/03/29 01:23:37;;;;;;;4.10;2.77;;;;;;;;;;4956012;28;20043;-58
2023/03/29 01:26:26;;;;;;;3.27;2.47;;;;;;;;;;4934414;28;20027;-58
2023/03/29 01:28:59;;;;;;;3.93;2.90;;;;;;;;;;4934421;28;20028;-59
2023/03/29 01:31:31;;;;;;;6.53;2.83;;;;;;;;;;4934019;28;20032;-58
2023/03/29 01:34:03;;;;;;;6.33;2.80;;;;;;;;;;4931223;28;20073;-58
2023/03/29 01:36:50;;;;;;;4.47;2.37;;;;;;;;;;4929139;28;20483;-58
2023/03/29 01:39:17;;;;;;;4.23;2.43;;;;;;;;;;4929252;28;20047;-58
2023/03/29 01:42:02;;;;;;;3.87;2.57;;;;;;;;;;4928544;28;20035;-58
2023/03/29 01:44:29;;;;;;;;;;;;;;;;;;4933605;28;20102;-58
2023/03/29 01:47:02;;;;;;;3.33;2.30;;;;;;;;;;4932049;28;19994;-59
2023/03/29 01:49:41;;;;;;;4.73;2.60;;;;;;;;;;4934263;28;20032;-58
2023/03/29 01:52:11;;;;;;;3.43;2.37;;;;;;;;;;4934530;28;20028;-58
2023/03/29 01:54:43;;;;;;;3.90;1.97;;;;;;;;;;4934021;28;20107;-58
2023/03/29 01:57:11;;;;;;;2.97;2.23;;;;;;;;;;4929054;28;20106;-58
2023/03/29 01:59:40;;;;;;;2.20;1.80;;;;;;;;;;4929009;28;20028;-58
2023/03/29 02:02:10;;;;;;;3.57;2.40;;;;;;;;;;4929020;28;20551;-58
2023/03/29 02:04:46;;;;;;;3.33;2.30;;;;;;;;;;4928979;28;20028;-58
2023/03/29 02:07:15;;;;;;;4.23;3.10;;;;;;;;;;4932762;28;20031;-58
2023/03/29 02:09:42;;;;;;;2.33;2.03;;;;;;;;;;4934120;28;20027;-58
2023/03/29 02:12:09;;;;;;;5.20;2.70;;;;;;;;;;4933846;28;20040;-58
2023/03/29 02:14:37;;;;;;;3.37;2.00;;;;;;;;;;4934160;29;20039;-58
2023/03/29 02:17:20;;;;;;;3.00;2.27;;;;;;;;;;4933819;29;20051;-58
2023/03/29 02:19:49;;;;;;;6.03;3.00;;;;;;;;;;4928112;28;20035;-58
2023/03/29 02:22:19;;;;;;;4.07;2.60;;;;;;;;;;4928902;28;20063;-58
2023/03/29 02:24:47;;;;;;;2.87;1.70;;;;;;;;;;4928441;28;20086;-58
2023/03/29 02:27:14;;;;;;;2.03;1.50;;;;;;;;;;4928497;28;20482;-58
2023/03/29 02:29:41;;;;;;;4.07;2.50;;;;;;;;;;4932351;28;20099;-58
2023/03/29 02:32:18;;;;;;;3.27;2.37;;;;;;;;;;4933799;28;20107;-58
2023/03/29 02:34:49;;;;;;;5.13;2.70;;;;;;;;;;4933299;28;20043;-59
2023/03/29 02:37:17;;;;;;;2.90;2.27;;;;;;;;;;4933668;28;20066;-58
2023/03/29 02:39:46;;;;;;;4.87;2.87;;;;;;;;;;4933515;28;20119;-57
2023/03/29 02:42:15;;;;;;;6.43;2.87;;;;;;;;;;4928442;28;20031;-58
2023/03/29 02:44:43;;;;;;;3.50;2.57;;;;;;;;;;4928257;28;20039;-58
2023/03/29 02:47:16;;;;;;;3.17;2.47;;;;;;;;;;4928530;28;20039;-58
2023/03/29 02:49:43;;;;;;;4.73;2.67;;;;;;;;;;4928156;28;20514;-57
2023/03/29 02:52:12;;;;;;;3.80;2.73;;;;;;;;;;4932990;28;20051;-58
2023/03/29 02:54:42;;;;;;;4.40;2.57;;;;;;;;;;4932975;28;20111;-58
2023/03/29 02:57:09;;;;;;;3.07;2.57;;;;;;;;;;4933165;28;20028;-58
2023/03/29 02:59:37;;;;;;;4.07;2.60;;;;;;;;;;4933078;28;20059;-58
2023/03/29 03:02:04;;;;;;;4.30;2.20;;;;;;;;;;4933347;28;20028;-58
2023/03/29 03:04:34;;;;;;;6.50;2.73;;;;;;;;;;4927026;28;20081;-58
2023/03/29 03:07:03;;;;;;;3.33;2.60;;;;;;;;;;4928266;28;20023;-58
2023/03/29 03:09:30;;;;;;;5.73;2.73;;;;;;;;;;4927561;28;20115;-58
2023/03/29 03:11:57;;;;;;;3.97;2.70;;;;;;;;;;4928227;28;20036;-58
2023/03/29 03:14:24;;;;;;;4.77;2.70;;;;;;;;;;4932730;28;20032;-58
2023/03/29 03:16:54;;;;;;;2.67;2.03;;;;;;;;;;4932735;28;20119;-57
2023/03/29 03:19:21;;;;;;;3.63;2.63;;;;;;;;;;4932898;28;20467;-58
2023/03/29 03:21:48;;;;;;;2.93;2.20;;;;;;;;;;4933127;28;20107;-58
2023/03/29 03:24:16;;;;;;;6.73;2.90;;;;;;;;;;4932084;28;20657;-58
2023/03/29 03:26:45;;;;;;;4.03;2.23;;;;;;;;;;4927121;28;20028;-58
2023/03/29 03:29:12;;;;;;;4.17;2.00;;;;;;;;;;4927943;28;20039;-58
2023/03/29 03:31:43;;;;;;;3.87;2.50;;;;;;;;;;4927948;28;20038;-58
2023/03/29 03:34:10;;;;;;;5.03;3.03;;;;;;;;;;4928002;28;20024;-57
2023/03/29 03:36:37;;;;;;;4.00;3.00;;;;;;;;;;4931263;28;20024;-58
2023/03/29 03:39:05;;;;;;;4.03;2.60;;;;;;;;;;4931568;28;20039;-57
2023/03/29 03:41:33;;;;;;;2.83;2.23;;;;;;;;;;4932774;28;20024;-57
2023/03/29 03:44:00;;;;;;;4.97;2.47;;;;;;;;;;4932497;28;20038;-58
2023/03/29 03:46:27;;;;;;;7.03;3.13;;;;;;;;;;4931302;28;20490;-58
2023/03/29 03:48:54;;;;;;;2.60;2.13;;;;;;;;;;4928008;28;20173;-58
2023/03/29 03:51:21;;;;;;;2.93;2.40;;;;;;;;;;4927761;28;20036;-58
2023/03/29 03:53:47;;;;;;;3.07;2.43;;;;;;;;;;4927259;28;20023;-58
2023/03/29 03:56:15;;;;;;;7.40;2.70;;;;;;;;;;4927701;28;20498;-58
2023/03/29 03:58:42;;;;;;;3.97;2.63;;;;;;;;;;4929728;28;20177;-58
2023/03/29 04:01:08;;;;;;;3.57;2.43;;;;;;;;;;4932213;28;20034;-57
2023/03/29 04:03:36;;;;;;;4.50;2.63;;;;;;;;;;4932372;28;20032;-57
2023/03/29 04:06:03;;;;;;;5.93;3.33;;;;;;;;;;4932074;28;20039;-58
2023/03/29 04:08:30;;;;;;;4.93;3.23;;;;;;;;;;4932244;28;20056;-57
2023/03/29 04:10:58;;;;;;;3.53;2.53;;;;;;;;;;4927972;28;20467;-58
2023/03/29 04:13:25;;;;;;;3.70;2.77;;;;;;;;;;4927279;29;20078;-57
2023/03/29 04:15:55;;;;;;;3.07;2.57;;;;;;;;;;4927360;29;20131;-58
2023/03/29 04:18:23;;;;;;;5.93;2.63;;;;;;;;;;4927903;28;20028;-58
2023/03/29 04:20:50;;;;;;;3.03;2.27;;;;;;;;;;4930128;28;20031;-58
2023/03/29 04:23:17;;;;;;;5.47;2.83;;;;;;;;;;4932330;28;20020;-58
2023/03/29 04:25:43;;;;;;;4.37;3.07;;;;;;;;;;4932293;28;20066;-57
2023/03/29 04:28:11;;;;;;;6.47;3.13;;;;;;;;;;4932017;28;20024;-58
2023/03/29 04:30:38;;;;;;;4.60;2.87;;;;;;;;;;4932165;28;20383;-58
2023/03/29 04:33:04;;;;;;;4.90;2.90;;;;;;;;;;4929010;28;20093;-58
2023/03/29 04:35:32;;;;;;;2.77;2.17;;;;;;;;;;4927115;28;20107;-58
2023/03/29 04:37:58;;;;;;;9.20;2.80;;;;;;;;;;4926577;28;20475;-58
2023/03/29 04:40:25;;;;;;;5.67;3.23;;;;;;;;;;4927088;28;20038;-58
2023/03/29 04:42:53;;;;;;;9.63;2.53;;;;;;;;;;4929538;28;20023;-58
2023/03/29 04:45:20;;;;;;;5.23;2.73;;;;;;;;;;4932078;28;20032;-58
2023/03/29 04:47:46;;;;;;;7.33;2.73;;;;;;;;;;4931417;28;20020;-58
2023/03/29 04:50:13;;;;;;;3.70;2.70;;;;;;;;;;4931995;28;20035;-57
2023/03/29 04:52:40;;;;;;;3.43;2.37;;;;;;;;;;4931769;28;20036;-57
2023/03/29 04:55:08;;;;;;;6.20;2.67;;;;;;;;;;4928986;28;20046;-58
2023/03/29 04:57:34;;;;;;;11.77;2.90;;;;;;;;;;4926935;28;20031;-58
2023/03/29 05:00:07;;;;;;;6.87;3.50;;;;;;;;;;4926288;28;20039;-58
2023/03/29 05:02:33;;;;;;;4.03;2.73;;;;;;;;;;4925435;28;20028;-58
2023/03/29 05:05:00;;;;;;;4.43;2.53;;;;;;;;;;4927050;28;20539;-58
2023/03/29 05:07:27;;;;;;;3.87;2.43;;;;;;;;;;4931673;28;20039;-58
2023/03/29 05:09:54;;;;;;;6.70;3.10;;;;;;;;;;4931695;28;20027;-58
2023/03/29 05:12:21;;;;;;;4.17;2.43;;;;;;;;;;4931463;28;20086;-58
2023/03/29 05:14:47;;;;;;;3.37;2.60;;;;;;;;;;4932203;28;20552;-58
2023/03/29 05:17:14;;;;;;;4.33;2.80;;;;;;;;;;4929591;28;20039;-57
2023/03/29 05:19:42;;;;;;;3.73;2.73;;;;;;;;;;4925244;28;20078;-58
2023/03/29 05:22:09;;;;;;;3.50;2.33;;;;;;;;;;4927989;28;20020;-58
2023/03/29 05:24:36;;;;;;;5.17;2.80;;;;;;;;;;4929511;28;20032;-57
2023/03/29 05:27:03;;;;;;;3.70;2.90;;;;;;;;;;4930752;28;20032;-57
2023/03/29 05:29:33;;;;;;;2.87;2.17;;;;;;;;;;4933507;28;20023;-57
2023/03/29 05:32:00;;;;;;;5.07;2.63;;;;;;;;;;4934525;28;20036;-58
2023/03/29 05:34:27;;;;;;;3.97;2.37;;;;;;;;;;4934690;28;20537;-58
2023/03/29 05:36:55;;;;;;;3.10;2.30;;;;;;;;;;4934600;28;20030;-58
2023/03/29 05:39:22;;;;;;;3.60;2.67;;;;;;;;;;4932630;28;20031;-58
2023/03/29 05:41:50;;;;;;;5.27;3.50;;;;;;;;;;4929452;28;20032;-58
2023/03/29 05:44:17;;;;;;;4.23;2.70;;;;;;;;;;4929217;28;20027;-58
2023/03/29 05:46:43;;;;;;;3.30;2.60;;;;;;;;;;4929548;28;20495;-58
2023/03/29 05:49:11;;;;;;;7.10;2.73;;;;;;;;;;4930022;28;20046;-58
2023/03/29 05:51:37;;;;;;;6.90;3.27;;;;;;;;;;4934184;28;20043;-57
2023/03/29 05:54:04;;;;;;;3.97;2.40;;;;;;;;;;4934184;28;20023;-57
2023/03/29 05:56:31;;;;;;;9.00;3.50;;;;;;;;;;4933983;28;20039;-57
2023/03/29 05:58:58;;;;;;;3.40;2.73;;;;;;;;;;4934668;28;20051;-57
2023/03/29 06:01:24;;;;;;;3.73;2.90;;;;;;;;;;4933388;28;20028;-58
2023/03/29 06:03:52;;;;;;;9.13;2.67;;;;;;;;;;4929110;28;20027;-59
2023/03/29 06:06:20;;;;;;;5.87;2.80;;;;;;;;;;4910240;28;20032;-59
2023/03/29 06:08:47;;;;;;;2.87;2.27;;;;;;;;;;4926495;28;20035;-59
2023/03/29 06:11:14;;;;;;;6.63;3.07;;;;;;;;;;4928917;28;20027;-57
2023/03/29 06:13:41;;;;;;;5.13;3.30;;;;;;;;;;4934168;28;20031;-57
2023/03/29 06:16:09;;;;;;;5.10;2.70;;;;;;;;;;4934151;28;20032;-58
2023/03/29 06:18:38;;;;;;;4.03;2.63;;;;;;;;;;4934444;28;20479;-58
2023/03/29 06:21:06;;;;;;;6.97;3.63;;;;;;;;;;4934103;28;20027;-57
2023/03/29 06:23:33;;;;;;;5.30;2.90;;;;;;;;;;4933800;28;20470;-58
2023/03/29 06:26:00;;;;;;;6.00;2.60;;;;;;;;;;4928734;28;20373;-57
2023/03/29 06:28:27;;;;;;;3.57;2.63;;;;;;;;;;4928496;28;20036;-57
2023/03/29 06:30:55;;;;;;;5.13;3.50;;;;;;;;;;4928518;28;20074;-58
2023/03/29 06:33:24;;;;;;;6.57;3.50;;;;;;;;;;4927779;28;20046;-57
2023/03/29 06:35:51;;;;;;;4.97;3.23;;;;;;;;;;4933201;28;20422;-58
2023/03/29 06:38:19;;;;;;;2.20;1.90;;;;;;;;;;4933447;28;20036;-57
2023/03/29 06:40:47;;;;;;;4.63;3.27;;;;;;;;;;4933745;28;20035;-57
2023/03/29 06:43:13;;;;;;;5.30;3.53;;;;;;;;;;4933622;28;20024;-57
2023/03/29 06:45:40;;;;;;;20.93;3.13;;;;;;;;;;4932429;28;20082;-57
2023/03/29 06:48:07;;;;;;;7.10;3.77;;;;;;;;;;4928126;28;20360;-57
2023/03/29 06:50:34;;;;;;;7.37;2.70;;;;;;;;;;4928343;28;20039;-58
2023/03/29 06:53:01;;;;;;;4.37;2.80;;;;;;;;;;4928134;28;20036;-58
2023/03/29 06:55:28;;;;;;;8.77;3.40;;;;;;;;;;4928355;28;20436;-57
2023/03/29 06:57:54;;;;;;;3.90;3.00;;;;;;;;;;4932206;28;20047;-57
2023/03/29 07:00:28;;;;;;;4.20;2.93;;;;;;;;;;4932143;28;20043;-57
2023/03/29 07:02:56;;;;;;;8.13;4.20;;;;;;;;;;4933402;28;20039;-57
2023/03/29 07:05:24;;;;;;;3.30;2.73;;;;;;;;;;4933213;28;20028;-58
2023/03/29 07:07:58;;;;;;;4.47;3.57;;;;;;;;;;4933124;28;20023;-57
2023/03/29 07:10:25;;;;;;;;;;;;;;;;;;4928560;28;20141;-57
2023/03/29 07:12:52;;;;;;;11.30;4.00;;;;;;;;;;4927645;28;20346;-59
2023/03/29 07:15:20;;;;;;;7.17;5.00;;;;;;;;;;4928171;28;20032;-58
2023/03/29 07:17:50;;;;;;;4.43;3.83;;;;;;;;;;4926641;28;20036;-57
2023/03/29 07:20:16;;;;;;;6.27;4.47;;;;;;;;;;4932297;28;20024;-57
2023/03/29 07:22:44;;;;;;;9.07;5.07;;;;;;;;;;4931527;28;20032;-57
2023/03/29 07:25:11;;;;;;;7.67;4.60;;;;;;;;;;4933039;28;20498;-57
2023/03/29 07:27:39;;;;;;;5.50;3.63;;;;;;;;;;4932630;28;20471;-57
2023/03/29 07:30:10;;;;;;;7.63;5.20;;;;;;;;;;4932883;28;20515;-57
2023/03/29 07:32:37;;;;;;;6.10;4.50;;;;;;;;;;4928383;28;20036;-57
2023/03/29 07:35:05;;;;;;;4.87;3.80;;;;;;;;;;4927394;28;20035;-57
2023/03/29 07:37:33;;;;;;;15.80;4.67;;;;;;;;;;4927504;28;20104;-57
2023/03/29 07:40:02;;;;;;;5.07;4.07;;;;;;;;;;4927427;28;20035;-58
2023/03/29 07:42:29;;;;;;;6.13;4.70;;;;;;;;;;4931429;28;20024;-57
2023/03/29 07:44:57;;;;;;;6.77;4.47;;;;;;;;;;4931563;28;20035;-57
2023/03/29 07:47:24;;;;;;;4.33;3.57;;;;;;;;;;4931230;28;20395;-57
2023/03/29 07:49:51;;;;;;;5.47;4.33;;;;;;;;;;4932710;28;20102;-57
2023/03/29 07:52:18;;;;;;;6.17;4.10;;;;;;;;;;4932212;28;20065;-57
2023/03/29 07:54:45;;;;;;;6.27;4.43;;;;;;;;;;4928591;28;20020;-57
2023/03/29 07:57:11;;;;;;;4.70;4.10;;;;;;;;;;4927479;28;20423;-57
2023/03/29 07:59:38;;;;;;;6.37;5.13;;;;;;;;;;4927393;28;20031;-57
2023/03/29 08:02:05;;;;;;;7.23;5.10;;;;;;;;;;4927290;28;20027;-57
2023/03/29 08:04:32;;;;;;;4.57;3.90;;;;;;;;;;4930108;28;20478;-57
2023/03/29 08:06:58;;;;;;;8.50;5.80;;;;;;;;;;4932482;28;20020;-57
2023/03/29 08:09:26;;;;;;;6.40;4.23;;;;;;;;;;4931934;28;20078;-57
2023/03/29 08:11:52;;;;;;;6.17;4.10;;;;;;;;;;4932448;28;20035;-57
2023/03/29 08:14:20;;;;;;;2.40;2.03;;;;;;;;;;4930965;28;20038;-57
2023/03/29 08:16:47;;;;;;;5.10;3.47;;;;;;;;;;4927613;28;20050;-57
2023/03/29 08:19:15;;;;;;;5.77;3.90;;;;;;;;;;4927012;28;20077;-57
2023/03/29 08:21:42;;;;;;;6.33;4.47;;;;;;;;;;4926997;28;20030;-57
2023/03/29 08:24:08;;;;;;;4.77;3.80;;;;;;;;;;4926944;28;20081;-57
2023/03/29 08:26:35;;;;;;;5.93;3.90;;;;;;;;;;4929281;28;20032;-57
2023/03/29 08:29:02;;;;;;;13.10;4.30;;;;;;;;;;4932184;28;20028;-58
2023/03/29 08:31:29;;;;;;;5.80;4.17;;;;;;;;;;4932080;28;20043;-57
2023/03/29 08:33:56;;;;;;;6.53;4.70;;;;;;;;;;4931856;28;20027;-57
2023/03/29 08:36:22;;;;;;;5.97;5.37;;;;;;;;;;4931871;28;20356;-57
2023/03/29 08:38:50;;;;;;;7.43;6.23;;;;;;;;;;4928953;28;20113;-57
2023/03/29 08:41:35;;;;;;;7.67;6.00;;;;;;;;;;4926928;28;20020;-57
2023/03/29 08:44:11;;;;;;;7.82;6.70;;;;;;;;;;4925559;28;20040;-57
2023/03/29 08:46:38;;;;;;;9.97;5.87;;;;;;;;;;4926874;28;20034;-57
2023/03/29 08:49:06;;;;;;;10.60;6.57;;;;;;;;;;4929288;28;20032;-57
2023/03/29 08:51:36;;;;;;;8.50;6.37;;;;;;;;;;4931866;28;20035;-57
2023/03/29 08:54:07;;;;;;;8.03;6.17;;;;;;;;;;4931371;28;20023;-57
2023/03/29 08:56:36;;;;;;;8.53;6.63;;;;;;;;;;4932984;28;20031;-57
2023/03/29 08:59:03;;;;;;;6.70;5.63;;;;;;;;;;4934961;28;20036;-57
2023/03/29 09:01:33;;;;;;;7.37;6.17;;;;;;;;;;4931755;28;20479;-57
2023/03/29 09:04:38;;;;;;;7.10;5.93;;;;;;;;;;4930184;28;20019;-57
2023/03/29 09:07:11;;;;;;;8.07;6.07;;;;;;;;;;4988271;28;20038;-57
2023/03/29 09:09:38;;;;;;;11.83;7.40;;;;;;;;;;4987934;28;20085;-57
2023/03/29 09:12:05;;;;;;;11.40;7.37;;;;;;;;;;4961727;28;20048;-57
2023/03/29 09:14:47;;;;;;;10.70;7.10;;;;;;;;;;4935020;28;20118;-57
2023/03/29 09:17:34;;;;;;;7.73;5.87;;;;;;;;;;4934736;28;20028;-57
2023/03/29 09:20:01;;;;;;;6.07;4.73;;;;;;;;;;4934910;28;20024;-57
2023/03/29 09:22:39;;;;;;;8.63;5.77;;;;;;;;;;4934404;28;20086;-57
2023/03/29 09:25:15;;;;;;;9.10;6.33;;;;;;;;;;4929747;28;20023;-57
2023/03/29 09:28:05;;;;;;;8.10;5.67;;;;;;;;;;4929244;28;20544;-57
2023/03/29 09:30:35;;;;;;;7.97;6.10;;;;;;;;;;4936627;28;20067;-57
2023/03/29 09:33:04;;;;;;;7.97;5.93;;;;;;;;;;4930367;28;20039;-57
2023/03/29 09:35:33;;;;;;;6.17;5.57;;;;;;;;;;4934346;28;20024;-57
2023/03/29 09:38:00;;;;;;;7.37;5.10;;;;;;;;;;4934598;28;20036;-57
2023/03/29 09:40:38;;;;;;;7.80;6.23;;;;;;;;;;4934413;28;20051;-57
2023/03/29 09:43:07;;;;;;;7.20;4.80;;;;;;;;;;4934698;28;20043;-57
2023/03/29 09:45:37;;;;;;;6.30;4.57;;;;;;;;;;4931495;28;20032;-57
2023/03/29 09:48:11;;;;;;;5.67;4.63;;;;;;;;;;4929407;28;20031;-57
2023/03/29 09:50:40;;;;;;;10.02;5.60;;;;;;;;;;4929286;28;20046;-57
2023/03/29 09:53:07;;;;;;;6.40;4.60;;;;;;;;;;4929232;28;20054;-57
2023/03/29 09:55:36;;;;;;;8.03;5.70;;;;;;;;;;4930972;28;20103;-57
2023/03/29 09:58:11;;;;;;;7.87;4.73;;;;;;;;;;4933129;28;20119;-56
2023/03/29 10:00:37;;;;;;;;;;;;;;;;;;4934922;28;20055;-57
2023/03/29 10:03:04;;;;;;;5.83;5.13;;;;;;;;;;4934298;28;19953;-57
2023/03/29 10:05:33;;;;;;;5.17;4.07;;;;;;;;;;4934363;28;20039;-57
2023/03/29 10:08:00;;;;;;;11.40;5.77;;;;;;;;;;4930924;28;20402;-57
2023/03/29 10:10:28;;;;;;;7.03;5.00;;;;;;;;;;4928586;28;20102;-57
2023/03/29 10:12:59;;;;;;;7.20;5.10;;;;;;;;;;4927619;28;20138;-57
2023/03/29 10:15:29;;;;;;;5.73;4.47;;;;;;;;;;4928384;28;20024;-57
2023/03/29 10:18:05;;;;;;;7.40;4.37;;;;;;;;;;4930359;28;20103;-57
2023/03/29 10:20:35;;;;;;;6.77;4.93;;;;;;;;;;4934124;28;20020;-56
2023/03/29 10:23:01;;;;;;;6.07;5.30;;;;;;;;;;4933775;28;20651;-57
2023/03/29 10:25:32;;;;;;;5.53;4.00;;;;;;;;;;4932671;28;20114;-57
2023/03/29 10:28:11;;;;;;;5.87;4.43;;;;;;;;;;4933502;28;20060;-57
2023/03/29 10:30:38;;;;;;;5.73;4.73;;;;;;;;;;4931099;28;20032;-57
2023/03/29 10:33:07;;;;;;;5.77;4.80;;;;;;;;;;4928368;28;20039;-57
2023/03/29 10:35:41;;;;;;;4.10;3.53;;;;;;;;;;4928392;28;20032;-57
2023/03/29 10:38:16;;;;;;;7.47;5.13;;;;;;;;;;4928648;28;20036;-57
2023/03/29 10:40:45;;;;;;;6.10;5.40;;;;;;;;;;4929892;28;20040;-57
2023/03/29 10:43:23;;;;;;;8.07;5.17;;;;;;;;;;4933825;28;20074;-57
2023/03/29 10:45:52;;;;;;;5.27;4.53;;;;;;;;;;4933140;28;20020;-57
2023/03/29 10:48:23;;;;;;;7.90;5.03;;;;;;;;;;4933200;28;20032;-57
2023/03/29 10:50:54;;;;;;;5.73;4.63;;;;;;;;;;4933160;28;20036;-57
2023/03/29 10:53:25;;;;;;;5.40;4.43;;;;;;;;;;4929764;28;20032;-57
2023/03/29 10:56:04;;;;;;;6.97;4.57;;;;;;;;;;4928685;28;20078;-57
2023/03/29 10:58:36;;;;;;;8.90;4.43;;;;;;;;;;4926812;28;20562;-57
2023/03/29 11:01:03;;;;;;;7.67;5.73;;;;;;;;;;4928441;28;20035;-57
2023/03/29 11:03:48;;;;;;;4.30;3.83;;;;;;;;;;4931626;28;20035;-56
2023/03/29 11:06:22;;;;;;;19.75;4.68;;;;;;;;;;4933284;28;20039;-57
2023/03/29 11:08:52;;;;;;;5.03;4.07;;;;;;;;;;4933308;28;20035;-57
2023/03/29 11:11:39;;;;;;;5.40;4.47;;;;;;;;;;4932922;28;20027;-57
2023/03/29 11:14:12;;;;;;;7.53;4.97;;;;;;;;;;4933112;28;20012;-57
2023/03/29 11:16:51;;;;;;;15.10;5.97;;;;;;;;;;4927958;28;20034;-57
2023/03/29 11:19:29;;;;;;;6.27;5.27;;;;;;;;;;4927751;28;20032;-56
2023/03/29 11:22:09;;;;;;;5.57;4.60;;;;;;;;;;4927646;28;20055;-56
2023/03/29 11:24:47;;;;;;;8.33;5.70;;;;;;;;;;4927676;28;20024;-56
2023/03/29 11:27:23;;;;;;;8.63;5.60;;;;;;;;;;4932842;28;20034;-56
2023/03/29 11:29:57;;;;;;;9.27;6.17;;;;;;;;;;4933009;28;20030;-57
2023/03/29 11:32:29;;;;;;;7.68;5.53;;;;;;;;;;4932878;28;20030;-57
2023/03/29 11:34:58;;;;;;;6.30;4.20;;;;;;;;;;4932840;28;20613;-56
2023/03/29 11:37:28;;;;;;;5.77;4.53;;;;;;;;;;4930177;28;20426;-56
2023/03/29 11:40:08;;;;;;;5.63;5.00;;;;;;;;;;4927462;28;20028;-57
2023/03/29 11:42:39;;;;;;;41.83;6.07;;;;;;;;;;4927233;28;20483;-57
2023/03/29 11:45:06;;;;;;;5.73;4.57;;;;;;;;;;4927572;28;20032;-57
2023/03/29 11:47:37;;;;;;;8.10;5.77;;;;;;;;;;4928627;28;20397;-57
2023/03/29 11:50:24;;;;;;;6.93;5.87;;;;;;;;;;4916124;28;20459;-57
2023/03/29 11:53:02;;;;;;;7.80;5.70;;;;;;;;;;4932456;28;20099;-56
2023/03/29 11:55:34;;;;;;;5.53;3.63;;;;;;;;;;4931334;28;20038;-57
2023/03/29 11:58:04;;;;;;;6.13;5.30;;;;;;;;;;4932680;28;20415;-56
2023/03/29 12:00:32;;;;;;;7.33;5.97;;;;;;;;;;4928013;28;20055;-57
2023/03/29 12:03:03;;;;;;;6.53;5.57;;;;;;;;;;4927318;28;20059;-57
2023/03/29 12:05:36;;;;;;;12.63;7.63;;;;;;;;;;4927388;28;20031;-56
2023/03/29 12:08:12;;;;;;;4.80;4.23;;;;;;;;;;4927324;28;20032;-57
2023/03/29 12:10:51;;;;;;;7.23;5.00;;;;;;;;;;4931281;28;20034;-56
2023/03/29 12:13:21;;;;;;;9.67;5.80;;;;;;;;;;4932360;28;20498;-56
2023/03/29 12:15:53;;;;;;;7.33;5.73;;;;;;;;;;4930869;28;20034;-56
2023/03/29 12:18:20;;;;;;;6.83;5.37;;;;;;;;;;4932218;28;20106;-56
2023/03/29 12:20:51;;;;;;;10.27;6.03;;;;;;;;;;4932297;28;20024;-57
2023/03/29 12:23:18;;;;;;;5.00;4.20;;;;;;;;;;4927181;28;20107;-56
2023/03/29 12:25:52;;;;;;;6.93;5.93;;;;;;;;;;4926893;28;20047;-57
2023/03/29 12:28:32;;;;;;;9.70;5.57;;;;;;;;;;4926868;28;20097;-56
2023/03/29 12:31:01;;;;;;;10.00;6.33;;;;;;;;;;4927110;28;20086;-57
2023/03/29 12:33:37;;;;;;;12.87;6.10;;;;;;;;;;4935297;28;20379;-57
2023/03/29 12:36:07;;;;;;;7.87;6.73;;;;;;;;;;4935237;28;20094;-57
2023/03/29 12:38:34;;;;;;;8.13;6.60;;;;;;;;;;4935536;28;20028;-56
2023/03/29 12:41:02;;;;;;;6.83;4.13;;;;;;;;;;4935089;28;20115;-56
2023/03/29 12:43:40;;;;;;;9.17;5.93;;;;;;;;;;4935042;28;20421;-57
2023/03/29 12:46:09;;;;;;;6.27;4.90;;;;;;;;;;4930274;28;20024;-57
2023/03/29 12:48:40;;;;;;;8.60;6.13;;;;;;;;;;4929851;28;20281;-57
2023/03/29 12:51:18;;;;;;;7.17;5.83;;;;;;;;;;4930014;28;20036;-57
2023/03/29 12:53:53;;;;;;;11.37;8.13;;;;;;;;;;4930298;28;20068;-57
2023/03/29 12:56:19;;;;;;;;;;;;;;;;;;4935531;28;20078;-57
2023/03/29 12:58:55;;;;;;;9.10;7.17;;;;;;;;;;4934974;28;19914;-57
2023/03/29 13:01:29;;;;;;;10.60;6.87;;;;;;;;;;4935033;28;20034;-57
2023/03/29 13:03:57;;;;;;;9.37;6.37;;;;;;;;;;4934861;28;20028;-57
2023/03/29 13:06:27;;;;;;;13.57;7.07;;;;;;;;;;4933185;28;20024;-57
2023/03/29 13:09:01;;;;;;;8.60;6.60;;;;;;;;;;4929763;28;20042;-57
2023/03/29 13:11:33;;;;;;;8.85;6.60;;;;;;;;;;4929121;28;20418;-57
2023/03/29 13:14:02;;;;;;;10.80;6.30;;;;;;;;;;4929748;28;20030;-57
2023/03/29 13:16:33;;;;;;;9.70;7.00;;;;;;;;;;4931080;28;20094;-57
2023/03/29 13:19:19;;;;;;;8.20;6.30;;;;;;;;;;4934969;28;20491;-57
2023/03/29 13:22:01;;;;;;;8.35;6.28;;;;;;;;;;4933505;28;20546;-57
2023/03/29 13:24:27;;;;;;;7.60;6.47;;;;;;;;;;4934688;28;20026;-57
2023/03/29 13:27:01;;;;;;;18.90;8.50;;;;;;;;;;4934261;28;20109;-58
2023/03/29 13:29:28;;;;;;;13.90;8.13;;;;;;;;;;4931371;28;20035;-57
2023/03/29 13:31:55;;;;;;;12.60;8.13;;;;;;;;;;4928266;28;20115;-57
2023/03/29 13:34:21;;;;;;;10.10;5.87;;;;;;;;;;4929357;28;20027;-57
2023/03/29 13:36:53;;;;;;;11.03;7.80;;;;;;;;;;4929288;28;20035;-57
2023/03/29 13:39:25;;;;;;;10.23;7.73;;;;;;;;;;4932031;28;20046;-58
2023/03/29 13:41:53;;;;;;;13.13;6.60;;;;;;;;;;4934234;28;20028;-57
2023/03/29 13:44:24;;;;;;;12.33;7.33;;;;;;;;;;4933077;28;20378;-57
2023/03/29 13:47:01;;;;;;;9.47;7.50;;;;;;;;;;4934033;28;20031;-57
2023/03/29 13:49:29;;;;;;;8.60;6.63;;;;;;;;;;4934481;28;20378;-57
2023/03/29 13:51:59;;;;;;;10.80;7.37;;;;;;;;;;4930375;28;20093;-57
2023/03/29 13:54:35;;;;;;;11.67;9.30;;;;;;;;;;4929083;28;20031;-57
2023/03/29 13:57:05;;;;;;;7.13;6.43;;;;;;;;;;4928483;28;20032;-57
2023/03/29 13:59:32;;;;;;;10.77;7.73;;;;;;;;;;4929137;28;20028;-57
2023/03/29 14:02:01;;;;;;;9.83;8.27;;;;;;;;;;4931582;28;20037;-57
2023/03/29 14:04:33;;;;;;;13.47;8.73;;;;;;;;;;4934245;28;20028;-57
2023/03/29 14:07:00;;;;;;;16.93;8.93;;;;;;;;;;4933761;28;20059;-57
2023/03/29 14:09:29;;;;;;;12.60;9.27;;;;;;;;;;4934108;28;20415;-57
2023/03/29 14:11:56;;;;;;;12.73;7.87;;;;;;;;;;4933522;28;20471;-57
2023/03/29 14:14:24;;;;;;;12.13;9.77;;;;;;;;;;4929895;28;20387;-57
2023/03/29 14:16:51;;;;;;;11.97;9.47;;;;;;;;;;4928512;28;20498;-57
2023/03/29 14:19:19;;;;;;;10.67;8.90;;;;;;;;;;4928685;28;20024;-57
2023/03/29 14:21:46;;;;;;;30.77;22.70;;;;;;;;;;4928613;28;20474;-57
2023/03/29 14:24:17;;;;;;;23.00;14.93;;;;;;;;;;4931779;28;20086;-57
2023/03/29 14:26:46;;;;;;;15.83;11.70;;;;;;;;;;4933519;28;20035;-57
2023/03/29 14:29:12;;;;;;;22.40;11.20;;;;;;;;;;4933967;28;20093;-57
2023/03/29 14:31:40;;;;;;;9.70;7.27;;;;;;;;;;4933406;28;20036;-58
2023/03/29 14:34:11;;;;;;;14.43;8.90;;;;;;;;;;4933919;28;20458;-57
2023/03/29 14:36:38;;;;;;;12.30;8.83;;;;;;;;;;4928551;28;20039;-57
2023/03/29 14:39:05;;;;;;;12.10;10.07;;;;;;;;;;4927461;28;20038;-57
2023/03/29 14:41:32;;;;;;;13.43;9.67;;;;;;;;;;4927683;28;20133;-57
2023/03/29 14:44:00;;;;;;;8.37;6.80;;;;;;;;;;4927590;28;20086;-57
2023/03/29 14:46:27;;;;;;;13.33;11.80;;;;;;;;;;4931210;28;20094;-57
2023/03/29 14:48:54;;;;;;;10.80;8.80;;;;;;;;;;4933020;28;20023;-57
2023/03/29 14:51:25;;;;;;;11.80;9.43;;;;;;;;;;4933512;28;20483;-57
2023/03/29 14:53:52;;;;;;;11.43;8.80;;;;;;;;;;4931278;28;20044;-58
2023/03/29 14:56:24;;;;;;;10.23;7.37;;;;;;;;;;4933317;28;20028;-58
2023/03/29 14:58:53;;;;;;;12.40;8.83;;;;;;;;;;4929287;28;20411;-58